Time;durP1;ratioP1;P1;durP2;ratioP2;P2;SDS_P1;SDS_P2;PMS_P1;PMS_P2;Temp;Humidity;BMP_temperature;BMP_pressure;BME280_temperature;BME280_humidity;BME280_pressure;Samples;Min_cycle;Max_cycle;Signal;HPM_P1;HPM_P2
2023/07/30 00:00:28;;;;;;;9.60;3.50;;;;;;;14.77;92.53;100880.25;5094780;28;20488;-48
2023/07/30 00:02:53;;;;;;;7.70;2.92;;;;;;;14.77;91.78;100887.41;5095866;28;20035;-48
2023/07/30 00:05:19;;;;;;;6.45;3.00;;;;;;;14.73;92.50;100886.84;5099201;28;20420;-48
2023/07/30 00:07:44;;;;;;;7.22;3.30;;;;;;;14.71;93.07;100888.81;5097822;28;20102;-48
2023/07/30 00:10:09;;;;;;;8.63;3.13;;;;;;;14.71;92.79;100885.31;5094641;28;20127;-48
2023/07/30 00:12:35;;;;;;;12.00;3.70;;;;;;;14.67;92.33;100882.09;5098492;28;20043;-47
2023/07/30 00:15:00;;;;;;;7.13;3.40;;;;;;;14.67;93.06;100886.56;5096463;28;20464;-48
2023/07/30 00:17:25;;;;;;;8.98;3.42;;;;;;;14.67;92.43;100878.56;5094188;28;20032;-48
2023/07/30 00:19:51;;;;;;;9.32;3.15;;;;;;;14.61;93.32;100870.13;5099222;28;20020;-48
2023/07/30 00:22:16;;;;;;;8.07;3.50;;;;;;;14.63;93.04;100880.66;5096181;28;20051;-47
2023/07/30 00:24:41;;;;;;;6.90;3.03;;;;;;;14.61;93.82;100879.97;5099416;28;20107;-48
2023/07/30 00:27:06;;;;;;;4.88;3.25;;;;;;;14.58;93.34;100877.56;5094860;28;20028;-48
2023/07/30 00:29:32;;;;;;;6.35;3.08;;;;;;;14.56;94.17;100877.69;5094318;28;20082;-48
2023/07/30 00:31:57;;;;;;;7.90;3.22;;;;;;;14.56;94.13;100883.03;5094380;28;20504;-48
2023/07/30 00:34:22;;;;;;;8.95;3.38;;;;;;;14.54;93.72;100887.69;5098917;28;20023;-47
2023/07/30 00:36:48;;;;;;;8.27;3.17;;;;;;;14.52;94.06;100886.13;5094267;28;20405;-49
2023/07/30 00:39:13;;;;;;;8.60;3.35;;;;;;;14.52;93.83;100891.47;5098632;28;20030;-49
2023/07/30 00:41:38;;;;;;;11.30;3.70;;;;;;;14.47;93.79;100883.91;5100457;28;20558;-48
2023/07/30 00:44:04;;;;;;;9.80;3.60;;;;;;;14.46;93.89;100887.56;5102508;28;20047;-48
2023/07/30 00:46:30;;;;;;;8.07;3.88;;;;;;;14.42;94.21;100891.47;5093058;28;20031;-48
2023/07/30 00:48:55;;;;;;;6.32;3.22;;;;;;;14.43;93.92;100887.84;5099327;28;20098;-48
2023/07/30 00:51:21;;;;;;;10.52;3.25;;;;;;;14.41;94.48;100895.16;5103871;28;20020;-49
2023/07/30 00:53:46;;;;;;;8.85;3.47;;;;;;;14.39;94.97;100897.13;5099408;28;20027;-48
2023/07/30 00:56:12;;;;;;;7.45;3.28;;;;;;;14.39;95.82;100899.81;5098899;28;20023;-48
2023/07/30 00:58:37;;;;;;;8.13;3.63;;;;;;;14.35;96.20;100898.38;5101312;28;20027;-47
2023/07/30 01:01:02;;;;;;;10.82;3.65;;;;;;;14.34;95.73;100899.34;5091898;28;20032;-48
2023/07/30 01:03:28;;;;;;;9.65;3.80;;;;;;;14.32;95.76;100902.19;5099482;28;20031;-48
2023/07/30 01:05:54;;;;;;;10.23;3.47;;;;;;;14.32;95.71;100906.69;5098481;28;20020;-47
2023/07/30 01:08:19;;;;;;;7.85;3.38;;;;;;;14.30;96.46;100911.31;5102468;28;20056;-48
2023/07/30 01:10:45;;;;;;;8.55;3.58;;;;;;;14.29;95.86;100917.63;5099774;28;20410;-48
2023/07/30 01:13:12;;;;;;;12.60;3.90;;;;;;;14.27;96.54;100914.28;5100240;28;20028;-48
2023/07/30 01:15:37;;;;;;;12.13;4.00;;;;;;;14.25;96.28;100914.41;5099758;28;20117;-47
2023/07/30 01:18:02;;;;;;;6.95;3.70;;;;;;;14.24;97.35;100908.25;5100613;28;20488;-48
2023/07/30 01:20:31;;;;;;;9.23;3.45;;;;;;;14.21;97.05;100927.22;5098161;28;20032;-48
2023/07/30 01:22:58;;;;;;;7.85;3.33;;;;;;;14.22;97.06;100923.56;5096334;28;20028;-48
2023/07/30 01:25:25;;;;;;;10.90;4.05;;;;;;;14.20;98.38;100930.03;5096635;28;20473;-48
2023/07/30 01:27:54;;;;;;;12.55;3.70;;;;;;;14.19;97.57;100918.50;5099207;28;20020;-48
2023/07/30 01:30:26;;;;;;;11.75;3.70;;;;;;;14.19;97.95;100920.34;5091565;28;20035;-48
2023/07/30 01:32:52;;;;;;;9.18;3.45;;;;;;;14.18;97.52;100927.47;5102195;28;20019;-48
2023/07/30 01:35:25;;;;;;;12.57;3.95;;;;;;;14.16;98.51;100932.13;5101030;28;20027;-48
2023/07/30 01:37:51;;;;;;;10.35;4.30;;;;;;;14.17;98.30;100936.50;5100808;28;20465;-48
2023/07/30 01:40:17;;;;;;;9.30;3.97;;;;;;;14.16;98.24;100941.97;5102262;28;20035;-48
2023/07/30 01:42:42;;;;;;;9.32;3.65;;;;;;;14.16;98.18;100932.13;5098339;28;20055;-48
2023/07/30 01:45:08;;;;;;;12.20;4.53;;;;;;;14.17;98.28;100932.97;5094321;28;20035;-48
2023/07/30 01:47:33;;;;;;;9.52;3.83;;;;;;;14.14;99.29;100933.22;5099374;28;20423;-48
2023/07/30 01:49:58;;;;;;;14.55;4.18;;;;;;;14.14;99.27;100944.78;5102161;28;20452;-48
2023/07/30 01:52:24;;;;;;;17.23;4.40;;;;;;;14.11;99.23;100942.38;5090858;28;20198;-48
2023/07/30 01:54:49;;;;;;;9.55;3.90;;;;;;;14.11;98.89;100947.72;5100032;28;20102;-48
2023/07/30 01:57:14;;;;;;;8.48;3.78;;;;;;;14.09;99.15;100944.34;5101802;28;20023;-48
2023/07/30 01:59:40;;;;;;;10.63;4.03;;;;;;;14.06;99.36;100941.97;5097388;28;20012;-48
2023/07/30 02:02:06;;;;;;;14.75;3.70;;;;;;;14.06;99.92;100945.47;5096974;28;20127;-49
2023/07/30 02:04:32;;;;;;;10.50;4.03;;;;;;;14.06;99.09;100944.63;5097155;28;20027;-48
2023/07/30 02:06:57;;;;;;;9.25;3.70;;;;;;;14.06;99.91;100941.97;5102115;28;20469;-48
2023/07/30 02:09:23;;;;;;;10.38;3.67;;;;;;;14.04;100.00;100941.25;5095898;28;20111;-48
2023/07/30 02:11:48;;;;;;;11.13;3.88;;;;;;;14.03;100.00;100937.72;5097912;28;20123;-48
2023/07/30 02:14:13;;;;;;;10.52;4.18;;;;;;;14.03;100.00;100939.56;5100199;28;20031;-48
2023/07/30 02:16:39;;;;;;;11.32;4.00;;;;;;;14.04;100.00;100943.94;5098723;28;20108;-48
2023/07/30 02:19:04;;;;;;;8.93;3.42;;;;;;;14.06;100.00;100920.59;5099900;28;20023;-48
2023/07/30 02:21:32;;;;;;;12.77;4.60;;;;;;;14.07;100.00;100932.94;5102265;28;20024;-48
2023/07/30 02:23:57;;;;;;;8.18;3.47;;;;;;;14.07;100.00;100924.94;5093903;28;20036;-47
2023/07/30 02:26:22;;;;;;;10.15;3.83;;;;;;;14.07;100.00;100923.13;5100118;28;20366;-47
2023/07/30 02:28:48;;;;;;;11.65;3.95;;;;;;;14.10;100.00;100924.66;5099844;28;20027;-48
2023/07/30 02:31:13;;;;;;;13.20;4.43;;;;;;;14.11;100.00;100929.03;5099425;28;20263;-48
2023/07/30 02:33:38;;;;;;;15.27;4.50;;;;;;;14.13;100.00;100931.56;5096594;28;20278;-48
2023/07/30 02:36:04;;;;;;;11.70;4.22;;;;;;;14.13;100.00;100926.22;5099933;28;20028;-49
2023/07/30 02:38:29;;;;;;;13.40;3.90;;;;;;;14.14;100.00;100930.56;5097818;28;20366;-48
2023/07/30 02:40:54;;;;;;;17.00;4.70;;;;;;;14.14;100.00;100926.09;5100590;28;20096;-48
2023/07/30 02:43:20;;;;;;;12.30;4.68;;;;;;;14.17;100.00;100920.47;5095782;28;20115;-49
2023/07/30 02:45:49;;;;;;;11.40;4.03;;;;;;;14.19;100.00;100929.19;5093481;28;20130;-48
2023/07/30 02:48:14;;;;;;;13.20;4.47;;;;;;;14.21;100.00;100927.22;5098507;28;20709;-48
2023/07/30 02:50:39;;;;;;;12.02;4.90;;;;;;;14.24;100.00;100926.09;5098045;28;20386;-48
2023/07/30 02:53:05;;;;;;;17.83;4.72;;;;;;;14.24;100.00;100929.59;5096627;28;20034;-48
2023/07/30 02:55:30;;;;;;;21.50;5.63;;;;;;;14.26;100.00;100926.78;5102449;28;20024;-48
2023/07/30 02:57:55;;;;;;;14.15;4.70;;;;;;;14.28;100.00;100929.34;5098074;28;20123;-48
2023/07/30 03:00:20;;;;;;;14.45;4.70;;;;;;;14.29;100.00;100923.84;5100327;28;20030;-48
2023/07/30 03:02:46;;;;;;;11.45;4.70;;;;;;;14.30;100.00;100930.88;5095125;28;20500;-47
2023/07/30 03:05:11;;;;;;;15.32;4.65;;;;;;;14.32;100.00;100926.25;5095179;28;20053;-49
2023/07/30 03:07:36;;;;;;;12.85;4.32;;;;;;;14.33;100.00;100924.41;5099064;28;20111;-48
2023/07/30 03:10:02;;;;;;;15.60;5.20;;;;;;;14.36;100.00;100927.63;5093461;28;20028;-48
2023/07/30 03:12:27;;;;;;;12.10;4.43;;;;;;;14.35;100.00;100931.28;5098101;28;20031;-47
2023/07/30 03:14:53;;;;;;;15.85;5.28;;;;;;;14.37;100.00;100932.00;5094436;28;20025;-48
2023/07/30 03:17:18;;;;;;;13.77;4.70;;;;;;;14.38;100.00;100925.66;5095252;28;20115;-48
2023/07/30 03:19:43;;;;;;;14.38;4.47;;;;;;;14.42;100.00;100931.56;5102442;28;20022;-48
2023/07/30 03:22:09;;;;;;;15.93;5.10;;;;;;;14.42;100.00;100928.91;5095073;28;20024;-48
2023/07/30 03:24:34;;;;;;;15.45;4.25;;;;;;;14.44;100.00;100935.81;5101852;28;20314;-47
2023/07/30 03:26:59;;;;;;;13.85;4.40;;;;;;;14.45;100.00;100933.97;5093052;28;20036;-48
2023/07/30 03:29:24;;;;;;;18.30;5.00;;;;;;;14.48;100.00;100938.19;5098524;28;20461;-47
2023/07/30 03:31:50;;;;;;;13.90;4.70;;;;;;;14.46;100.00;100930.31;5101125;28;20042;-48
2023/07/30 03:34:15;;;;;;;12.15;4.18;;;;;;;14.47;100.00;100937.38;5099461;28;20542;-47
2023/07/30 03:36:40;;;;;;;11.90;4.18;;;;;;;14.47;100.00;100937.38;5095933;28;20094;-48
2023/07/30 03:39:06;;;;;;;16.30;4.90;;;;;;;14.48;100.00;100939.03;5094504;28;20027;-47
2023/07/30 03:41:31;;;;;;;12.13;4.35;;;;;;;14.49;100.00;100939.88;5098541;28;20127;-48
2023/07/30 03:43:56;;;;;;;17.08;4.78;;;;;;;14.50;100.00;100934.38;5092087;28;20035;-48
2023/07/30 03:46:22;;;;;;;14.38;4.60;;;;;;;14.53;100.00;100943.97;5099976;28;20031;-48
2023/07/30 03:48:47;;;;;;;14.75;4.07;;;;;;;14.55;100.00;100947.34;5097299;28;20020;-48
2023/07/30 03:51:12;;;;;;;13.57;4.25;;;;;;;14.56;100.00;100941.84;5097717;28;20061;-49
2023/07/30 03:53:38;;;;;;;13.25;4.55;;;;;;;14.55;100.00;100941.97;5098762;28;20047;-48
2023/07/30 03:56:03;;;;;;;13.85;4.28;;;;;;;14.55;100.00;100950.00;5096761;28;20062;-48
2023/07/30 03:58:30;;;;;;;12.52;4.45;;;;;;;14.57;100.00;100948.91;5100615;28;20055;-48
2023/07/30 04:00:56;;;;;;;13.80;4.32;;;;;;;14.57;100.00;100953.38;5097014;28;20107;-48
2023/07/30 04:03:21;;;;;;;11.18;3.90;;;;;;;14.57;100.00;100951.56;5095692;28;20326;-48
2023/07/30 04:05:46;;;;;;;18.10;4.57;;;;;;;14.57;100.00;100954.25;5100010;28;20381;-49
2023/07/30 04:08:11;;;;;;;12.35;4.47;;;;;;;14.59;100.00;100951.47;5095531;28;20027;-49
2023/07/30 04:10:37;;;;;;;15.68;4.70;;;;;;;14.59;100.00;100956.81;5094768;28;20075;-49
2023/07/30 04:13:02;;;;;;;15.43;4.75;;;;;;;14.59;100.00;100946.13;5096039;28;20039;-48
2023/07/30 04:15:27;;;;;;;17.55;5.28;;;;;;;14.59;100.00;100949.63;5101355;28;20042;-47
2023/07/30 04:17:53;;;;;;;12.00;4.05;;;;;;;14.63;100.00;100954.69;5100535;28;20020;-48
2023/07/30 04:20:19;;;;;;;18.83;5.03;;;;;;;14.61;100.00;100953.00;5102460;28;20046;-48
2023/07/30 04:22:44;;;;;;;14.25;4.25;;;;;;;14.64;100.00;100961.69;5098473;28;20537;-47
2023/07/30 04:25:12;;;;;;;18.65;4.78;;;;;;;14.62;100.00;100951.16;5103683;28;20047;-47
2023/07/30 04:27:38;;;;;;;16.07;4.73;;;;;;;14.64;100.00;100951.88;5097227;28;20039;-48
2023/07/30 04:30:05;;;;;;;17.30;5.20;;;;;;;14.65;100.00;100950.88;5101922;28;20277;-48
2023/07/30 04:32:31;;;;;;;14.10;4.78;;;;;;;14.66;100.00;100952.56;5097319;28;20024;-48
2023/07/30 04:34:56;;;;;;;16.20;5.30;;;;;;;14.71;100.00;100952.16;5101571;27;20554;-48
2023/07/30 04:37:21;;;;;;;15.07;5.18;;;;;;;14.71;100.00;100965.53;5096726;28;20028;-48
2023/07/30 04:39:47;;;;;;;19.00;6.28;;;;;;;14.70;100.00;100959.31;5103452;28;20023;-48
2023/07/30 04:42:13;;;;;;;19.70;5.72;;;;;;;14.73;100.00;100959.03;5099287;28;20389;-47
2023/07/30 04:44:38;;;;;;;20.33;5.47;;;;;;;14.75;100.00;100961.56;5104233;28;20031;-48
2023/07/30 04:47:04;;;;;;;15.02;5.28;;;;;;;14.77;100.00;100952.44;5104786;28;20068;-48
2023/07/30 04:49:29;;;;;;;14.00;5.40;;;;;;;14.80;100.00;100959.31;5102542;28;20046;-48
2023/07/30 04:51:54;;;;;;;13.30;5.25;;;;;;;14.82;100.00;100959.16;5097353;28;20494;-50
2023/07/30 04:54:19;;;;;;;20.50;7.10;;;;;;;14.84;100.00;100960.72;5100300;28;20532;-48
2023/07/30 04:56:45;;;;;;;16.92;5.65;;;;;;;14.86;100.00;100953.41;5093051;28;20042;-48
2023/07/30 04:59:10;;;;;;;17.52;5.68;;;;;;;14.87;100.00;100960.44;5102090;28;20111;-49
2023/07/30 05:01:35;;;;;;;17.25;5.82;;;;;;;14.90;100.00;100962.81;5095508;28;20024;-48
2023/07/30 05:04:01;;;;;;;20.35;5.80;;;;;;;14.94;100.00;100968.75;5099575;28;20043;-48
2023/07/30 05:06:26;;;;;;;16.58;5.60;;;;;;;14.94;100.00;100969.56;5097987;28;20038;-48
2023/07/30 05:08:51;;;;;;;15.35;6.28;;;;;;;14.96;100.00;100970.25;5097946;28;20020;-48
2023/07/30 05:11:17;;;;;;;21.00;5.82;;;;;;;14.99;100.00;100974.50;5094721;28;20043;-49
2023/07/30 05:13:42;;;;;;;17.85;6.38;;;;;;;15.02;100.00;100978.69;5096673;28;20020;-49
2023/07/30 05:16:07;;;;;;;19.98;6.28;;;;;;;15.03;100.00;100978.56;5102682;28;20016;-48
2023/07/30 05:18:33;;;;;;;21.73;6.13;;;;;;;15.05;100.00;100989.13;5101069;28;20023;-48
2023/07/30 05:20:58;;;;;;;23.90;5.57;;;;;;;15.07;100.00;100988.00;5098409;28;20424;-48
2023/07/30 05:23:24;;;;;;;20.05;6.13;;;;;;;15.09;100.00;100987.88;5100436;28;20024;-48
2023/07/30 05:25:49;;;;;;;17.52;5.95;;;;;;;15.11;100.00;100991.22;5096758;27;20107;-50
2023/07/30 05:28:14;;;;;;;18.92;5.85;;;;;;;15.14;100.00;100988.28;5101532;28;20039;-48
2023/07/30 05:30:40;;;;;;;18.60;5.72;;;;;;;15.18;100.00;100992.34;5097068;28;20453;-47
2023/07/30 05:33:05;;;;;;;19.33;5.93;;;;;;;15.20;100.00;100993.03;5091891;28;20025;-48
2023/07/30 05:35:31;;;;;;;21.25;5.38;;;;;;;15.20;100.00;100982.31;5100549;28;20421;-48
2023/07/30 05:37:56;;;;;;;15.48;6.10;;;;;;;15.23;100.00;100982.03;5099874;28;20493;-48
2023/07/30 05:40:22;;;;;;;17.42;6.13;;;;;;;15.25;100.00;100977.38;5096493;28;20024;-51
2023/07/30 05:42:47;;;;;;;18.45;6.28;;;;;;;15.27;100.00;100980.78;5096052;28;20119;-49
2023/07/30 05:45:12;;;;;;;20.88;6.03;;;;;;;15.26;100.00;100981.75;5097084;28;20028;-48
2023/07/30 05:47:38;;;;;;;23.77;6.15;;;;;;;15.30;100.00;100977.78;5096936;28;20020;-48
2023/07/30 05:50:03;;;;;;;19.83;6.55;;;;;;;15.32;100.00;100973.16;5097222;27;20063;-48
2023/07/30 05:52:28;;;;;;;21.08;5.80;;;;;;;15.32;100.00;100978.50;5093923;28;20032;-49
2023/07/30 05:54:54;;;;;;;22.67;5.63;;;;;;;15.39;100.00;100975.22;5096803;28;20028;-49
2023/07/30 05:57:19;;;;;;;19.88;5.50;;;;;;;15.41;100.00;100983.97;5094798;28;20061;-48
2023/07/30 05:59:44;;;;;;;18.95;5.75;;;;;;;15.47;100.00;100978.03;5099869;28;20016;-48
2023/07/30 06:02:10;;;;;;;24.27;6.18;;;;;;;15.51;100.00;100985.63;5094843;28;20024;-50
2023/07/30 06:04:35;;;;;;;19.60;6.10;;;;;;;15.55;100.00;100986.16;5099758;28;20107;-49
2023/07/30 06:07:02;;;;;;;24.92;6.93;;;;;;;15.56;100.00;100990.53;5095809;28;20082;-49
2023/07/30 06:09:28;;;;;;;21.67;6.88;;;;;;;15.61;100.00;100993.63;5097877;28;20028;-49
2023/07/30 06:11:53;;;;;;;17.95;6.20;;;;;;;15.65;100.00;100991.50;5088669;28;20024;-50
2023/07/30 06:14:18;;;;;;;20.55;5.85;;;;;;;15.69;100.00;100991.06;5092470;28;20073;-50
2023/07/30 06:16:44;;;;;;;21.58;6.10;;;;;;;15.73;100.00;100997.78;5095329;28;20068;-50
2023/07/30 06:19:09;;;;;;;24.08;6.50;;;;;;;15.78;100.00;100994.69;5088222;28;20060;-49
2023/07/30 06:21:34;;;;;;;21.13;6.55;;;;;;;15.81;100.00;100990.91;5096793;28;20035;-49
2023/07/30 06:24:00;;;;;;;20.65;6.43;;;;;;;15.84;100.00;100994.13;5092697;28;20032;-50
2023/07/30 06:26:25;;;;;;;22.13;7.15;;;;;;;15.86;100.00;100991.28;5097551;28;20550;-49
2023/07/30 06:28:50;;;;;;;22.38;6.50;;;;;;;15.91;100.00;100995.19;5087773;28;20028;-50
2023/07/30 06:31:16;;;;;;;28.05;6.90;;;;;;;15.94;100.00;100993.22;5095412;28;20469;-49
2023/07/30 06:33:41;;;;;;;19.77;5.82;;;;;;;15.96;100.00;100996.59;5092919;28;20019;-48
2023/07/30 06:36:06;;;;;;;16.90;5.60;;;;;;;15.99;100.00;100996.31;5097537;28;20057;-49
2023/07/30 06:38:32;;;;;;;21.55;6.30;;;;;;;16.00;100.00;100988.09;5097078;28;20032;-50
2023/07/30 06:40:57;;;;;;;23.85;6.80;;;;;;;16.03;100.00;100992.34;5090154;28;20090;-49
2023/07/30 06:43:23;;;;;;;22.85;6.05;;;;;;;16.09;100.00;100989.91;5095909;28;20024;-49
2023/07/30 06:45:49;;;;;;;21.40;5.65;;;;;;;16.15;100.00;100987.59;5089085;28;20055;-49
2023/07/30 06:48:15;;;;;;;24.45;5.50;;;;;;;16.21;100.00;100989.69;5094555;28;20019;-49
2023/07/30 06:50:41;;;;;;;19.40;5.07;;;;;;;16.29;100.00;101000.50;5089799;28;20579;-49
2023/07/30 06:53:06;;;;;;;23.27;6.18;;;;;;;16.36;100.00;100990.84;5092183;28;20051;-51
2023/07/30 06:55:31;;;;;;;22.80;6.05;;;;;;;16.44;100.00;100993.63;5091829;28;20028;-49
2023/07/30 06:57:56;;;;;;;20.08;5.45;;;;;;;16.53;100.00;101002.56;5095251;28;20042;-50
2023/07/30 07:00:22;;;;;;;17.98;5.47;;;;;;;16.61;100.00;100996.47;5094747;28;20031;-50
2023/07/30 07:02:48;;;;;;;19.73;5.78;;;;;;;16.71;100.00;101007.94;5093878;28;20048;-52
2023/07/30 07:05:14;;;;;;;18.42;5.45;;;;;;;16.81;100.00;101002.50;5092157;28;20117;-50
2023/07/30 07:07:39;;;;;;;23.75;4.60;;;;;;;16.85;99.72;101003.91;5087969;28;20032;-50
2023/07/30 07:10:05;;;;;;;21.05;5.28;;;;;;;16.88;98.97;101006.28;5093283;28;20054;-50
2023/07/30 07:12:30;;;;;;;17.33;4.55;;;;;;;16.89;98.46;101016.03;5090724;28;20127;-49
2023/07/30 07:14:58;;;;;;;21.02;5.28;;;;;;;16.94;99.78;101008.34;5087203;28;20042;-50
2023/07/30 07:17:26;;;;;;;16.40;4.78;;;;;;;17.03;97.61;101009.25;5089912;28;20099;-50
2023/07/30 07:19:51;;;;;;;25.65;5.18;;;;;;;17.26;98.15;101014.13;5091154;28;20024;-50
2023/07/30 07:22:17;;;;;;;18.08;4.30;;;;;;;17.47;95.93;101009.22;5090529;28;20097;-51
2023/07/30 07:24:44;;;;;;;15.30;4.18;;;;;;;17.81;96.59;101010.25;5090118;28;21186;-51
2023/07/30 07:27:09;;;;;;;23.63;4.38;;;;;;;18.02;94.25;101008.00;5084259;28;20050;-49
2023/07/30 07:29:34;;;;;;;16.55;4.30;;;;;;;18.22;93.19;101003.19;5090736;28;20110;-51
2023/07/30 07:32:00;;;;;;;18.27;4.10;;;;;;;18.54;92.83;101008.81;5093262;28;20212;-50
2023/07/30 07:34:25;;;;;;;16.13;4.25;;;;;;;18.58;90.19;101011.00;5096477;28;20039;-48
2023/07/30 07:36:50;;;;;;;18.48;4.50;;;;;;;18.69;88.51;101023.28;5092877;28;20028;-50
2023/07/30 07:39:15;;;;;;;17.20;3.90;;;;;;;18.71;87.82;101028.50;5095863;28;20038;-50
2023/07/30 07:41:41;;;;;;;18.38;4.00;;;;;;;18.68;88.17;101033.22;5097620;28;20047;-49
2023/07/30 07:44:06;;;;;;;17.95;4.00;;;;;;;18.68;88.89;101025.16;5088569;28;20025;-48
2023/07/30 07:46:31;;;;;;;16.02;3.80;;;;;;;18.59;86.59;101023.44;5094585;28;20050;-48
2023/07/30 07:48:57;;;;;;;17.75;4.25;;;;;;;18.55;85.78;101027.50;5089081;28;20036;-48
2023/07/30 07:51:22;;;;;;;20.42;4.13;;;;;;;18.56;87.67;101031.00;5088162;28;20052;-47
2023/07/30 07:53:47;;;;;;;17.27;3.85;;;;;;;18.57;86.73;101027.28;5094245;28;20114;-49
2023/07/30 07:56:12;;;;;;;22.85;5.05;;;;;;;18.60;86.82;101025.13;5093928;28;20104;-48
2023/07/30 07:58:38;;;;;;;21.25;5.32;;;;;;;18.68;86.08;101026.97;5096322;28;20441;-50
2023/07/30 08:01:03;;;;;;;18.95;4.05;;;;;;;18.80;86.69;101022.09;5091534;28;20028;-49
2023/07/30 08:03:29;;;;;;;16.55;4.50;;;;;;;18.90;86.81;101036.31;5094533;28;20035;-49
2023/07/30 08:05:54;;;;;;;19.60;3.67;;;;;;;19.03;85.63;101023.19;5095321;28;20031;-49
2023/07/30 08:08:20;;;;;;;18.73;3.58;;;;;;;19.02;85.24;101034.13;5093027;28;20024;-50
2023/07/30 08:10:47;;;;;;;19.42;4.07;;;;;;;19.09;84.11;101039.66;5084499;28;20043;-50
2023/07/30 08:13:13;;;;;;;15.68;3.50;;;;;;;19.31;85.03;101044.34;5089080;28;20036;-50
2023/07/30 08:15:39;;;;;;;16.40;3.75;;;;;;;19.45;83.30;101042.84;5087757;28;20058;-49
2023/07/30 08:18:04;;;;;;;14.05;3.33;;;;;;;19.42;81.34;101046.69;5096367;28;20449;-50
2023/07/30 08:20:30;;;;;;;14.32;4.03;;;;;;;19.43;83.15;101047.53;5091055;28;20465;-49
2023/07/30 08:22:55;;;;;;;18.45;4.35;;;;;;;19.42;81.46;101051.25;5095599;28;20028;-49
2023/07/30 08:25:20;;;;;;;16.73;3.85;;;;;;;19.39;81.30;101047.03;5090648;28;20070;-49
2023/07/30 08:27:46;;;;;;;16.85;3.97;;;;;;;19.30;79.71;101056.16;5089925;28;20032;-50
2023/07/30 08:30:12;;;;;;;16.58;3.63;;;;;;;19.21;80.52;101049.06;5090288;28;20115;-49
2023/07/30 08:32:37;;;;;;;18.48;4.07;;;;;;;19.15;82.23;101053.28;5087326;28;20063;-49
2023/07/30 08:35:03;;;;;;;16.38;5.03;;;;;;;19.06;81.48;101053.47;5094586;28;20051;-49
2023/07/30 08:37:29;;;;;;;16.60;4.13;;;;;;;19.00;79.84;101038.81;5093518;28;20062;-49
2023/07/30 08:39:55;;;;;;;16.92;4.20;;;;;;;18.99;80.84;101039.84;5092384;28;20426;-49
2023/07/30 08:42:20;;;;;;;17.77;4.05;;;;;;;18.93;81.09;101045.88;5085768;28;20075;-50
2023/07/30 08:44:45;;;;;;;18.15;4.30;;;;;;;18.92;81.08;101054.94;5087778;28;20020;-49
2023/07/30 08:47:11;;;;;;;15.43;3.53;;;;;;;18.90;80.82;101046.22;5089436;28;20081;-50
2023/07/30 08:49:36;;;;;;;17.20;4.10;;;;;;;18.89;82.24;101041.84;5087023;28;20039;-50
2023/07/30 08:52:03;;;;;;;17.08;4.20;;;;;;;18.86;82.65;101048.41;5090131;28;20036;-47
2023/07/30 08:54:30;;;;;;;15.93;4.03;;;;;;;18.84;84.21;101042.34;5091798;28;20020;-47
2023/07/30 08:56:56;;;;;;;16.73;3.47;;;;;;;18.75;82.48;101046.00;5085428;28;20419;-49
2023/07/30 08:59:23;;;;;;;13.25;3.45;;;;;;;18.74;84.46;101037.09;5093033;28;20040;-47
2023/07/30 09:01:51;;;;;;;15.55;4.05;;;;;;;18.76;83.58;101040.44;5090370;28;20032;-47
2023/07/30 09:04:18;;;;;;;14.30;4.03;;;;;;;18.73;84.42;101038.09;5095602;28;20115;-47
2023/07/30 09:06:43;;;;;;;15.13;3.63;;;;;;;18.79;82.89;101040.13;5098659;28;20039;-47
2023/07/30 09:09:12;;;;;;;14.95;3.83;;;;;;;18.82;83.10;101037.09;5096587;28;20023;-48
2023/07/30 09:11:37;;;;;;;16.77;4.10;;;;;;;19.09;85.43;101032.41;5093479;28;20024;-47
2023/07/30 09:14:02;;;;;;;18.42;3.92;;;;;;;19.29;81.21;101034.78;5090716;28;20489;-47
2023/07/30 09:16:28;;;;;;;18.20;3.15;;;;;;;19.69;80.80;101033.84;5098077;28;20031;-47
2023/07/30 09:18:54;;;;;;;13.45;3.58;;;;;;;20.10;79.67;101039.13;5096366;28;20031;-48
2023/07/30 09:21:28;;;;;;;10.85;3.33;;;;;;;20.62;77.33;101029.56;5090799;28;20040;-48
2023/07/30 09:23:53;;;;;;;11.30;2.95;;;;;;;21.02;75.92;101024.06;5095322;28;20031;-50
2023/07/30 09:26:18;;;;;;;10.85;3.22;;;;;;;21.13;73.17;101029.00;5092344;28;20553;-50
2023/07/30 09:28:44;;;;;;;10.07;3.25;;;;;;;21.32;70.49;101032.22;5097099;28;20054;-50
2023/07/30 09:31:09;;;;;;;7.65;2.65;;;;;;;21.27;67.25;101035.47;5103461;28;20028;-49
2023/07/30 09:33:39;;;;;;;13.13;3.30;;;;;;;21.34;68.07;101028.31;5102241;28;20065;-49
2023/07/30 09:36:07;;;;;;;8.35;2.50;;;;;;;21.47;69.54;101030.41;5097876;28;20496;-50
2023/07/30 09:38:38;;;;;;;11.93;2.97;;;;;;;21.70;67.63;101034.88;5099918;28;20024;-49
2023/07/30 09:41:04;;;;;;;14.43;3.33;;;;;;;21.75;68.80;101032.44;5098548;28;20058;-50
2023/07/30 09:43:32;;;;;;;13.23;2.85;;;;;;;21.80;68.21;101043.56;5098805;28;20028;-51
2023/07/30 09:46:05;;;;;;;11.25;2.85;;;;;;;21.75;67.91;101033.31;5090937;28;20032;-48
2023/07/30 09:48:32;;;;;;;13.93;2.90;;;;;;;21.60;65.21;101040.59;5095850;28;20038;-48
2023/07/30 09:51:02;;;;;;;12.07;2.72;;;;;;;21.58;66.64;101038.06;5095018;28;20430;-50
2023/07/30 09:53:35;;;;;;;9.88;2.45;;;;;;;21.62;67.40;101041.22;5097251;27;20576;-51
2023/07/30 09:56:05;;;;;;;10.02;2.60;;;;;;;21.58;67.40;101045.31;5092126;28;20431;-47
2023/07/30 09:58:31;;;;;;;9.70;2.65;;;;;;;21.47;65.46;101046.63;5101585;28;20032;-48
2023/07/30 10:01:00;;;;;;;8.05;2.53;;;;;;;21.45;64.89;101045.94;5099186;28;20075;-48
2023/07/30 10:03:27;;;;;;;12.75;2.95;;;;;;;21.31;66.83;101049.44;5096877;28;20562;-48
2023/07/30 10:05:57;;;;;;;11.57;2.63;;;;;;;21.24;67.57;101046.63;5094888;28;20023;-51
2023/07/30 10:08:25;;;;;;;9.70;2.50;;;;;;;21.15;65.42;101051.28;5093148;28;20046;-51
2023/07/30 10:10:53;;;;;;;12.53;2.80;;;;;;;21.06;64.99;101055.06;5090735;28;20058;-48
2023/07/30 10:13:19;;;;;;;8.15;2.47;;;;;;;20.97;66.10;101058.88;5088485;28;20074;-50
2023/07/30 10:15:46;;;;;;;9.60;2.97;;;;;;;20.92;66.99;101059.41;5097412;28;20024;-50
2023/07/30 10:18:11;;;;;;;9.85;2.65;;;;;;;20.87;65.63;101064.50;5090323;28;20441;-50
2023/07/30 10:20:37;;;;;;;7.60;2.30;;;;;;;21.10;65.34;101064.50;5094842;28;20533;-50
2023/07/30 10:23:04;;;;;;;9.30;2.65;;;;;;;21.37;65.21;101062.22;5087967;28;20028;-50
2023/07/30 10:25:46;;;;;;;11.63;2.35;;;;;;;21.35;65.71;101062.41;5093762;28;20031;-49
2023/07/30 10:28:29;;;;;;;8.25;2.13;;;;;;;21.46;66.71;101055.72;5094781;28;20028;-50
2023/07/30 10:30:56;;;;;;;11.60;2.70;;;;;;;21.37;64.83;101067.63;5091845;28;20040;-49
2023/07/30 10:33:21;;;;;;;9.73;2.78;;;;;;;21.41;63.63;101072.47;5098457;28;20024;-48
2023/07/30 10:35:46;;;;;;;10.20;2.10;;;;;;;21.39;63.17;101084.50;5093671;28;20078;-52
2023/07/30 10:38:24;;;;;;;7.78;1.90;;;;;;;21.26;66.00;101094.03;5100478;28;20043;-50
2023/07/30 10:41:02;;;;;;;8.13;1.95;;;;;;;21.23;63.45;101088.16;5098706;28;20036;-50
2023/07/30 10:43:34;;;;;;;9.18;2.20;;;;;;;21.24;62.85;101097.97;5093207;28;20114;-53
2023/07/30 10:45:59;;;;;;;7.90;1.77;;;;;;;21.30;61.85;101093.69;5092453;28;20044;-51
2023/07/30 10:48:31;;;;;;;8.65;2.13;;;;;;;21.29;63.98;101087.44;5097718;28;20462;-49
2023/07/30 10:50:57;;;;;;;7.88;2.10;;;;;;;21.33;62.80;101079.81;5098012;28;20047;-48
2023/07/30 10:53:22;;;;;;;7.65;2.00;;;;;;;21.29;64.45;101073.13;5098782;28;20032;-48
2023/07/30 10:55:47;;;;;;;6.85;2.20;;;;;;;21.23;65.37;101085.47;5095419;28;20036;-47
2023/07/30 10:58:14;;;;;;;20.35;2.97;;;;;;;21.18;65.11;101087.88;5094013;28;20028;-46
2023/07/30 11:00:39;;;;;;;11.32;2.22;;;;;;;21.11;64.45;101082.34;5091896;28;20478;-46
2023/07/30 11:03:04;;;;;;;6.18;2.13;;;;;;;21.01;65.57;101088.00;5093679;28;20024;-48
2023/07/30 11:05:30;;;;;;;6.22;2.40;;;;;;;21.01;67.77;101092.56;5091856;28;20060;-48
2023/07/30 11:07:56;;;;;;;6.93;1.85;;;;;;;20.80;66.88;101101.31;5093412;28;20036;-48